»·PEaware :: N786SC KBFL-KSMX

N786SC :: KBFL-KSMX

FLIGHT INFORMATION

Flight Status: Arrived
Operator: Privately registered:
United States
More flights under this callsign
Pilot: Jereme M. (20698)
Aircraft: CESSNA 172 SKYHAWK
(C172)
More flights by this aircraft type
Origin: KBFL Meadows
United States
Destination: KSMX Santa Maria Pub/Capt Hancock
United States
More flights between these airports :: More routes between these airports
Route:
File this flight plan on PilotEdge
Remarks:
Altitude:
(Current/Filed)
6,500ft
Speed:
(Current/Filed)
110kts
Departed: 15-Oct-18 01:51 PM
Arrived: 15-Oct-18 02:38 PM
Distance/Time
Traveled:
75nm/0:47
Distance/Time
To Go:
Arrived

Flight Plot

Page will automatically refresh every two minutes.


Map Options




Map Legend


Flown Route
Filed Route
Departure Airport
Arrival Airport
Navaid (VOR, NDB)
Fix

Horizontal Profiles

Position Reports

Time Latitude Longitude Heading Altitude Ground
Speed
15-Oct-18 13:36 35.429367 -119.046106 226 510ft 0kts
15-Oct-18 13:37 35.429367 -119.046106 226 510ft 0kts
15-Oct-18 13:38 35.429367 -119.046106 226 510ft 0kts
15-Oct-18 13:39 35.429367 -119.046106 225 510ft 0kts
15-Oct-18 13:40 35.429367 -119.046106 225 510ft 0kts
15-Oct-18 13:41 35.429367 -119.046106 225 510ft 0kts
15-Oct-18 13:42 35.429367 -119.046106 225 510ft 0kts
15-Oct-18 13:43 35.429367 -119.046106 225 510ft 0kts
15-Oct-18 13:44 35.429367 -119.046106 225 510ft 0kts
15-Oct-18 13:45 35.429367 -119.046106 225 510ft 0kts
15-Oct-18 13:46 35.429367 -119.046106 225 510ft 0kts
15-Oct-18 13:47 35.429367 -119.046106 225 510ft 0kts
15-Oct-18 13:48 35.428846 -119.046738 208 510ft 6kts
15-Oct-18 13:49 35.426715 -119.045340 136 510ft 14kts
15-Oct-18 13:50 35.425673 -119.044810 231 510ft 0kts
15-Oct-18 13:51 35.425673 -119.044810 231 510ft 0kts
15-Oct-18 13:52 35.425612 -119.046151 297 510ft 10kts
15-Oct-18 13:53 35.437386 -119.059923 316 833ft 79kts
15-Oct-18 13:54 35.439863 -119.080839 224 1440ft 83kts
15-Oct-18 13:55 35.426186 -119.100878 212 2082ft 77kts
15-Oct-18 13:56 35.409689 -119.119790 234 2583ft 85kts
15-Oct-18 13:57 35.397629 -119.144755 241 3108ft 84kts
15-Oct-18 13:58 35.387167 -119.169094 242 3655ft 80kts
15-Oct-18 13:59 35.375257 -119.197449 242 4237ft 79kts
15-Oct-18 14:00 35.366977 -119.217214 242 4649ft 77kts
15-Oct-18 14:01 35.356773 -119.241607 242 5055ft 83kts
15-Oct-18 14:02 35.345934 -119.267535 242 5458ft 86kts
15-Oct-18 14:03 35.334958 -119.293732 242 5857ft 86kts
15-Oct-18 14:04 35.324073 -119.319665 242 6255ft 84kts
15-Oct-18 14:05 35.313067 -119.345869 242 6502ft 97kts
15-Oct-18 14:06 35.299341 -119.378739 242 6499ft 111kts
15-Oct-18 14:07 35.285461 -119.411798 242 6499ft 108kts
15-Oct-18 14:08 35.271576 -119.444730 242 6500ft 110kts
15-Oct-18 14:09 35.257384 -119.478381 242 6500ft 112kts
15-Oct-18 14:10 35.243055 -119.512311 242 6499ft 112kts
15-Oct-18 14:11 35.228724 -119.546216 242 6499ft 112kts
15-Oct-18 14:12 35.214466 -119.579900 242 6499ft 112kts
15-Oct-18 14:13 35.200071 -119.613820 242 6500ft 112kts
15-Oct-18 14:14 35.186128 -119.646687 242 6500ft 113kts
15-Oct-18 14:15 35.172300 -119.679280 242 6499ft 112kts
15-Oct-18 14:16 35.157981 -119.712980 242 6500ft 112kts
15-Oct-18 14:17 35.143553 -119.746898 242 6500ft 113kts
15-Oct-18 14:18 35.126696 -119.786508 242 6499ft 112kts
15-Oct-18 14:19 35.114700 -119.814648 242 6499ft 112kts
15-Oct-18 14:20 35.097969 -119.853917 242 6499ft 110kts
15-Oct-18 14:21 35.087551 -119.882415 248 6499ft 110kts
15-Oct-18 14:22 35.076351 -119.917160 248 6499ft 110kts
15-Oct-18 14:23 35.065143 -119.951875 248 6499ft 110kts
15-Oct-18 14:24 35.053893 -119.986598 248 6500ft 110kts
15-Oct-18 14:25 35.042631 -120.021341 248 6500ft 110kts
15-Oct-18 14:26 35.031750 -120.054854 248 6499ft 110kts
15-Oct-18 14:27 35.020450 -120.089630 248 6499ft 110kts
15-Oct-18 14:28 35.009030 -120.124317 247 6499ft 110kts
15-Oct-18 14:29 34.997110 -120.159236 247 6102ft 112kts
15-Oct-18 14:30 34.985257 -120.194168 247 5603ft 111kts
15-Oct-18 14:31 34.971546 -120.234846 247 5021ft 111kts
15-Oct-18 14:32 34.961799 -120.263949 248 4605ft 112kts
15-Oct-18 14:33 34.950138 -120.299019 248 4106ft 111kts
15-Oct-18 14:34 34.938989 -120.333329 248 3409ft 106kts
15-Oct-18 14:35 34.928431 -120.366684 249 2708ft 105kts
15-Oct-18 14:36 34.912945 -120.394325 226 2077ft 105kts
15-Oct-18 14:37 34.888465 -120.418802 206 1376ft 91kts
15-Oct-18 14:38 34.882183 -120.433937 319 828ft 77kts
15-Oct-18 14:39 34.894871 -120.448271 316 265ft 43kts
15-Oct-18 14:40 34.897727 -120.450010 359 265ft 0kts
15-Oct-18 14:41 34.897727 -120.450010 359 265ft 0kts
15-Oct-18 14:42 34.897832 -120.449333 136 265ft 10kts
15-Oct-18 14:43 34.897420 -120.446405 335 265ft 2kts
15-Oct-18 14:44 34.897410 -120.446482 204 265ft 0kts
15-Oct-18 14:45 34.897410 -120.446481 204 265ft 0kts
15-Oct-18 14:46 34.897410 -120.446481 204 265ft 0kts
15-Oct-18 14:47 34.897410 -120.446481 204 265ft 0kts
15-Oct-18 14:48 34.897410 -120.446481 204 265ft 0kts
15-Oct-18 14:49 34.897410 -120.446481 204 265ft 0kts
15-Oct-18 14:50 34.897410 -120.446481 204 265ft 0kts
15-Oct-18 14:51 34.897410 -120.446481 204 265ft 0kts
15-Oct-18 14:52 34.897410 -120.446481 204 265ft 0kts
15-Oct-18 14:53 34.897410 -120.446481 204 265ft 0kts
15-Oct-18 14:54 34.897410 -120.446481 204 265ft 0kts

Navigation Log

Ident Type
1. KBFL Airport
2. KSMX Airport